createdAt,value
2019-04-25T00:00:33.336Z,961.98
2019-04-25T00:01:33.320Z,962.00
2019-04-25T00:02:33.289Z,962.00
2019-04-25T00:03:33.267Z,962.06
2019-04-25T00:04:33.239Z,962.07
2019-04-25T00:05:33.220Z,962.13
2019-04-25T00:06:33.195Z,962.11
2019-04-25T00:07:33.168Z,962.00
2019-04-25T00:08:33.146Z,962.02
2019-04-25T00:09:33.131Z,962.19
2019-04-25T00:10:33.101Z,962.17
2019-04-25T00:11:33.073Z,962.07
2019-04-25T00:12:33.048Z,962.09
2019-04-25T00:13:33.029Z,962.15
2019-04-25T00:14:33.005Z,962.16
2019-04-25T00:15:32.982Z,962.15
2019-04-25T00:16:32.957Z,962.15
2019-04-25T00:17:32.937Z,962.17
2019-04-25T00:18:32.908Z,962.16
2019-04-25T00:19:32.902Z,962.20
2019-04-25T00:20:32.859Z,962.20
2019-04-25T00:21:33.897Z,962.19
2019-04-25T00:22:32.817Z,962.17
2019-04-25T00:23:32.793Z,962.17
2019-04-25T00:24:32.766Z,962.18
2019-04-25T00:25:32.744Z,962.17
2019-04-25T00:26:32.719Z,962.17
2019-04-25T00:27:32.701Z,962.20
2019-04-25T00:28:32.672Z,962.23
2019-04-25T00:29:32.647Z,962.24
2019-04-25T00:30:32.630Z,962.29
2019-04-25T00:31:32.601Z,962.32
2019-04-25T00:32:32.577Z,962.35
2019-04-25T00:33:32.554Z,962.38
2019-04-25T00:34:33.703Z,962.41
2019-04-25T00:35:32.499Z,962.47
2019-04-25T00:36:32.496Z,962.46
2019-04-25T00:37:32.470Z,962.47
2019-04-25T00:38:32.425Z,962.46
2019-04-25T00:39:32.412Z,962.51
2019-04-25T00:40:32.377Z,962.47
2019-04-25T00:41:34.067Z,962.45
2019-04-25T00:42:32.334Z,962.42
2019-04-25T00:43:32.307Z,962.41
2019-04-25T00:44:32.289Z,962.44
2019-04-25T00:45:32.266Z,962.40
2019-04-25T00:46:32.298Z,962.35
2019-04-25T00:47:32.217Z,962.38
2019-04-25T00:48:32.193Z,962.31
2019-04-25T00:49:32.312Z,962.26
2019-04-25T00:50:32.148Z,962.21
2019-04-25T00:51:32.123Z,962.29
2019-04-25T00:52:32.097Z,962.26
2019-04-25T00:53:32.432Z,962.30
2019-04-25T00:54:32.048Z,962.35
2019-04-25T00:55:32.021Z,962.37
2019-04-25T00:56:32.244Z,962.30
2019-04-25T00:57:32.173Z,962.25
2019-04-25T00:58:31.953Z,962.26
2019-04-25T00:59:32.090Z,962.38
2019-04-25T01:00:32.671Z,962.39
2019-04-25T01:01:31.878Z,962.38
2019-04-25T01:02:31.855Z,962.37
2019-04-25T01:03:31.840Z,962.41
2019-04-25T01:04:33.568Z,962.38
2019-04-25T01:05:31.783Z,962.35
2019-04-25T01:06:31.945Z,962.40
2019-04-25T01:07:32.449Z,962.33
2019-04-25T01:08:32.030Z,962.34
2019-04-25T01:09:32.326Z,962.28
2019-04-25T01:10:31.675Z,962.31
2019-04-25T01:11:31.636Z,962.32
2019-04-25T01:12:31.611Z,962.33
2019-04-25T01:13:32.186Z,962.25
2019-04-25T01:14:31.971Z,962.29
2019-04-25T01:15:31.550Z,962.25
2019-04-25T01:16:31.866Z,962.25
2019-04-25T01:17:31.584Z,962.29
2019-04-25T01:18:31.506Z,962.27
2019-04-25T01:19:31.440Z,962.32
2019-04-25T01:20:31.414Z,962.33
2019-04-25T01:21:31.385Z,962.34
2019-04-25T01:22:31.367Z,962.36
2019-04-25T01:23:31.344Z,962.40
2019-04-25T01:24:31.316Z,962.36
2019-04-25T01:25:40.702Z,962.43
2019-04-25T01:26:31.270Z,962.44
2019-04-25T01:27:31.241Z,962.43
2019-04-25T01:28:31.223Z,962.43
2019-04-25T01:29:31.201Z,962.42
2019-04-25T01:30:31.171Z,962.44
2019-04-25T01:31:31.145Z,962.50
2019-04-25T01:32:31.119Z,962.49
2019-04-25T01:33:31.106Z,962.54
2019-04-25T01:34:31.072Z,962.56
2019-04-25T01:35:31.046Z,962.57
2019-04-25T01:36:31.023Z,962.60
2019-04-25T01:37:30.994Z,962.57
2019-04-25T01:38:30.972Z,962.61
2019-04-25T01:39:30.950Z,962.58
2019-04-25T01:40:30.924Z,962.59
2019-04-25T01:41:30.906Z,962.69
2019-04-25T01:42:30.868Z,962.64
2019-04-25T01:43:30.853Z,962.64
2019-04-25T01:44:30.818Z,962.71
2019-04-25T01:45:30.799Z,962.72
2019-04-25T01:46:30.777Z,962.69
2019-04-25T01:47:30.750Z,962.70
2019-04-25T01:48:30.723Z,962.69
2019-04-25T01:49:30.697Z,962.67
2019-04-25T01:50:30.677Z,962.69
2019-04-25T01:51:30.647Z,962.73
2019-04-25T01:52:30.632Z,962.75
2019-04-25T01:53:30.603Z,962.77
2019-04-25T01:54:30.585Z,962.77
2019-04-25T01:55:30.551Z,962.74
2019-04-25T01:56:30.521Z,962.77
2019-04-25T01:57:30.503Z,962.81
2019-04-25T01:58:30.477Z,962.80
2019-04-25T01:59:30.453Z,962.89
2019-04-25T02:00:30.427Z,962.90
2019-04-25T02:01:30.399Z,962.89
2019-04-25T02:02:30.377Z,962.95
2019-04-25T02:03:30.352Z,962.97
2019-04-25T02:04:30.323Z,963.06
2019-04-25T02:05:30.304Z,963.00
2019-04-25T02:06:30.274Z,963.01
2019-04-25T02:07:30.252Z,962.99
2019-04-25T02:08:30.223Z,963.01
2019-04-25T02:09:30.201Z,963.00
2019-04-25T02:10:30.173Z,963.06
2019-04-25T02:11:30.151Z,963.06
2019-04-25T02:12:30.130Z,963.07
2019-04-25T02:13:30.098Z,963.15
2019-04-25T02:14:30.079Z,963.21
2019-04-25T02:15:30.060Z,963.21
2019-04-25T02:16:30.024Z,963.25
2019-04-25T02:17:30.002Z,963.20
2019-04-25T02:18:29.975Z,963.18
2019-04-25T02:19:29.944Z,963.21
2019-04-25T02:20:29.927Z,963.23
2019-04-25T02:21:29.902Z,963.22
2019-04-25T02:22:29.878Z,963.19
2019-04-25T02:23:29.860Z,963.09
2019-04-25T02:24:29.826Z,963.12
2019-04-25T02:25:29.802Z,963.14
2019-04-25T02:26:29.775Z,963.19
2019-04-25T02:27:29.747Z,963.17
2019-04-25T02:28:29.722Z,963.10
2019-04-25T02:29:29.700Z,963.11
2019-04-25T02:30:29.684Z,963.15
2019-04-25T02:31:29.652Z,963.17
2019-04-25T02:32:29.633Z,963.25
2019-04-25T02:33:29.604Z,963.35
2019-04-25T02:34:29.578Z,963.36
2019-04-25T02:35:29.697Z,963.23
2019-04-25T02:36:29.530Z,963.18
2019-04-25T02:37:29.496Z,963.23
2019-04-25T02:38:29.474Z,963.39
2019-04-25T02:39:29.446Z,963.44
2019-04-25T02:40:29.430Z,963.21
2019-04-25T02:41:29.403Z,963.20
2019-04-25T02:42:29.399Z,963.26
2019-04-25T02:43:29.352Z,963.26
2019-04-25T02:44:29.323Z,963.20
2019-04-25T02:45:29.293Z,963.27
2019-04-25T02:46:29.278Z,963.24
2019-04-25T02:47:29.248Z,963.26
2019-04-25T02:48:29.223Z,963.34
2019-04-25T02:49:35.882Z,963.30
2019-04-25T02:50:29.170Z,963.28
2019-04-25T02:51:29.157Z,963.33
2019-04-25T02:52:29.116Z,963.30
2019-04-25T02:53:29.094Z,963.28
2019-04-25T02:54:29.066Z,963.26
2019-04-25T02:55:31.923Z,963.29
2019-04-25T02:56:34.473Z,963.33
2019-04-25T02:57:29.007Z,963.35
2019-04-25T02:58:28.966Z,963.39
2019-04-25T02:59:28.939Z,963.39
2019-04-25T03:00:45.684Z,963.39
2019-04-25T03:01:28.907Z,963.34
2019-04-25T03:02:28.870Z,963.32
2019-04-25T03:03:28.844Z,963.31
2019-04-25T03:04:28.820Z,963.32
2019-04-25T03:05:28.801Z,963.30
2019-04-25T03:06:28.926Z,963.29
2019-04-25T03:07:28.764Z,963.34
2019-04-25T03:08:28.719Z,963.33
2019-04-25T03:09:28.701Z,963.36
2019-04-25T03:10:28.667Z,963.31
2019-04-25T03:11:28.657Z,963.28
2019-04-25T03:12:33.248Z,963.29
2019-04-25T03:13:28.595Z,963.26
2019-04-25T03:14:28.582Z,963.24
2019-04-25T03:15:28.538Z,963.24
2019-04-25T03:16:28.535Z,963.29
2019-04-25T03:17:28.493Z,963.33
2019-04-25T03:18:28.462Z,963.26
2019-04-25T03:19:28.437Z,963.28
2019-04-25T03:20:28.419Z,963.23
2019-04-25T03:21:28.423Z,963.28
2019-04-25T03:22:28.362Z,963.32
2019-04-25T03:23:28.347Z,963.31
2019-04-25T03:24:28.312Z,963.31
2019-04-25T03:25:28.287Z,963.38
2019-04-25T03:26:37.880Z,963.45
2019-04-25T03:27:28.233Z,963.43
2019-04-25T03:28:28.212Z,963.39
2019-04-25T03:29:28.189Z,963.44
2019-04-25T03:30:28.178Z,963.41
2019-04-25T03:31:28.142Z,963.41
2019-04-25T03:32:28.595Z,963.44
2019-04-25T03:33:28.106Z,963.42
2019-04-25T03:34:28.063Z,963.39
2019-04-25T03:35:28.045Z,963.42
2019-04-25T03:36:28.010Z,963.45
2019-04-25T03:37:27.984Z,963.52
2019-04-25T03:38:27.985Z,963.55
2019-04-25T03:39:27.934Z,963.57
2019-04-25T03:40:27.915Z,963.57
2019-04-25T03:41:27.887Z,963.56
2019-04-25T03:42:27.869Z,963.61
2019-04-25T03:43:27.837Z,963.69
2019-04-25T03:44:27.816Z,963.66
2019-04-25T03:45:27.781Z,963.74
2019-04-25T03:46:27.758Z,963.79
2019-04-25T03:47:27.733Z,963.79
2019-04-25T03:48:27.707Z,963.84
2019-04-25T03:49:27.682Z,963.89
2019-04-25T03:50:27.655Z,963.90
2019-04-25T03:51:27.628Z,963.93
2019-04-25T03:52:27.604Z,963.92
2019-04-25T03:53:27.591Z,963.96
2019-04-25T03:54:27.553Z,963.93
2019-04-25T03:55:27.530Z,963.95
2019-04-25T03:56:27.505Z,963.97
2019-04-25T03:57:27.472Z,963.93
2019-04-25T03:58:27.453Z,963.93
2019-04-25T03:59:27.426Z,963.92
2019-04-25T04:00:27.403Z,963.95
2019-04-25T04:01:27.376Z,963.96
2019-04-25T04:02:27.351Z,963.98
2019-04-25T04:03:27.319Z,963.97
2019-04-25T04:04:27.300Z,964.03
2019-04-25T04:05:27.275Z,964.02
2019-04-25T04:06:27.250Z,964.01
2019-04-25T04:07:27.223Z,964.02
2019-04-25T04:08:27.196Z,964.10
2019-04-25T04:09:27.174Z,964.10
2019-04-25T04:10:27.149Z,964.16
2019-04-25T04:11:27.123Z,964.15
2019-04-25T04:12:27.093Z,964.17
2019-04-25T04:13:27.066Z,964.18
2019-04-25T04:14:27.045Z,964.13
2019-04-25T04:15:27.020Z,964.13
2019-04-25T04:16:27.000Z,964.14
2019-04-25T04:17:26.963Z,964.15
2019-04-25T04:18:27.113Z,964.17
2019-04-25T04:19:26.917Z,964.13
2019-04-25T04:20:26.895Z,964.17
2019-04-25T04:21:26.869Z,964.16
2019-04-25T04:22:26.842Z,964.16
2019-04-25T04:23:26.812Z,964.10
2019-04-25T04:24:26.808Z,964.17
2019-04-25T04:25:26.765Z,964.20
2019-04-25T04:26:26.739Z,964.17
2019-04-25T04:27:26.713Z,964.24
2019-04-25T04:28:26.692Z,964.24
2019-04-25T04:29:26.680Z,964.28
2019-04-25T04:30:26.638Z,964.30
2019-04-25T04:31:26.611Z,964.28
2019-04-25T04:32:26.589Z,964.25
2019-04-25T04:33:32.226Z,964.26
2019-04-25T04:34:26.533Z,964.31
2019-04-25T04:35:26.510Z,964.25
2019-04-25T04:36:26.488Z,964.22
2019-04-25T04:37:26.463Z,964.20
2019-04-25T04:38:26.440Z,964.23
2019-04-25T04:39:26.409Z,964.26
2019-04-25T04:40:26.385Z,964.26
2019-04-25T04:41:26.359Z,964.29
2019-04-25T04:42:26.330Z,964.34
2019-04-25T04:43:26.304Z,964.32
2019-04-25T04:44:26.282Z,964.34
2019-04-25T04:45:26.258Z,964.37
2019-04-25T04:46:26.235Z,964.39
2019-04-25T04:47:26.209Z,964.38
2019-04-25T04:48:26.183Z,964.34
2019-04-25T04:49:26.158Z,964.34
2019-04-25T04:50:26.135Z,964.35
2019-04-25T04:51:26.103Z,964.39
2019-04-25T04:52:26.083Z,964.43
2019-04-25T04:53:26.058Z,964.41
2019-04-25T04:54:26.030Z,964.43
2019-04-25T04:55:26.008Z,964.45
2019-04-25T04:56:26.001Z,964.41
2019-04-25T04:57:32.586Z,964.41
2019-04-25T04:58:25.936Z,964.39
2019-04-25T04:59:25.911Z,964.44
2019-04-25T05:00:25.880Z,964.45
2019-04-25T05:01:25.857Z,964.48
2019-04-25T05:02:25.830Z,964.42
2019-04-25T05:03:26.714Z,964.47
2019-04-25T05:04:25.812Z,964.49
2019-04-25T05:05:25.765Z,964.45
2019-04-25T05:06:25.732Z,964.48
2019-04-25T05:07:25.707Z,964.41
2019-04-25T05:08:25.685Z,964.42
2019-04-25T05:09:25.657Z,964.45
2019-04-25T05:10:25.635Z,964.44
2019-04-25T05:11:25.605Z,964.43
2019-04-25T05:12:25.580Z,964.45
2019-04-25T05:13:25.556Z,964.46
2019-04-25T05:14:26.665Z,964.40
2019-04-25T05:15:25.510Z,964.43
2019-04-25T05:16:25.492Z,964.43
2019-04-25T05:17:25.522Z,964.44
2019-04-25T05:18:36.528Z,964.47
2019-04-25T05:19:25.410Z,964.51
2019-04-25T05:20:34.188Z,964.49
2019-04-25T05:22:18.297Z,964.47
2019-04-25T05:23:18.871Z,964.50
2019-04-25T05:25:16.253Z,964.47
2019-04-25T05:26:15.980Z,964.51
2019-04-25T05:28:08.473Z,964.52
2019-04-25T05:29:08.448Z,964.56
2019-04-25T05:31:03.434Z,964.58
2019-04-25T05:32:04.271Z,964.53
2019-04-25T05:33:56.409Z,964.56
2019-04-25T05:34:56.360Z,964.55
2019-04-25T05:36:49.247Z,964.59
2019-04-25T05:37:49.216Z,964.58
2019-04-25T05:39:43.461Z,964.56
2019-04-25T05:40:43.745Z,964.56
2019-04-25T05:42:34.925Z,964.58
2019-04-25T05:43:34.891Z,964.58
2019-04-25T05:45:30.335Z,964.61
2019-04-25T05:46:30.286Z,964.58
2019-04-25T05:48:26.354Z,964.59
2019-04-25T05:49:26.364Z,964.58
2019-04-25T05:51:19.453Z,964.57
2019-04-25T05:52:18.524Z,964.50
2019-04-25T05:54:13.983Z,964.53
2019-04-25T05:55:14.338Z,964.49
2019-04-25T05:57:05.246Z,964.46
2019-04-25T05:58:05.219Z,964.48
2019-04-25T05:59:59.169Z,964.50
2019-04-25T06:00:59.096Z,964.44
2019-04-25T06:02:53.335Z,964.42
2019-04-25T06:03:53.535Z,964.47
2019-04-25T06:05:44.879Z,964.59
2019-04-25T06:06:44.836Z,964.54
2019-04-25T06:08:38.187Z,964.59
2019-04-25T06:09:38.165Z,964.58
2019-04-25T06:11:31.089Z,964.66
2019-04-25T06:12:31.036Z,964.66
2019-04-25T06:14:40.007Z,964.70
2019-04-25T06:15:39.953Z,964.68
2019-04-25T06:17:37.862Z,964.66
2019-04-25T06:18:37.834Z,964.68
2019-04-25T06:20:35.981Z,964.62
2019-04-25T06:21:35.906Z,964.63
2019-04-25T06:23:30.307Z,964.71
2019-04-25T06:24:30.298Z,964.68
2019-04-25T06:26:40.043Z,964.59
2019-04-25T06:27:39.213Z,964.62
2019-04-25T06:29:35.219Z,964.56
2019-04-25T06:30:35.257Z,964.59
2019-04-25T06:31:34.556Z,964.55
2019-04-25T06:32:35.503Z,964.54
2019-04-25T06:33:34.539Z,964.59
2019-04-25T06:34:36.318Z,964.51
2019-04-25T06:35:35.766Z,964.51
2019-04-25T06:36:35.366Z,964.51
2019-04-25T06:37:35.124Z,964.52
2019-04-25T06:38:34.435Z,964.57
2019-04-25T06:39:34.423Z,964.55
2019-04-25T06:40:34.595Z,964.61
2019-04-25T06:41:35.343Z,964.64
2019-04-25T06:42:34.707Z,964.67
2019-04-25T06:43:34.356Z,964.65
2019-04-25T06:44:34.545Z,964.63
2019-04-25T06:45:34.491Z,964.62
2019-04-25T06:46:34.328Z,964.66
2019-04-25T06:47:34.299Z,964.64
2019-04-25T06:48:35.168Z,964.70
2019-04-25T06:49:36.491Z,964.68
2019-04-25T06:50:35.401Z,964.75
2019-04-25T06:51:34.354Z,964.74
2019-04-25T06:52:35.420Z,964.75
2019-04-25T06:53:34.625Z,964.78
2019-04-25T06:54:35.253Z,964.81
2019-04-25T06:55:34.382Z,964.77
2019-04-25T06:56:34.508Z,964.79
2019-04-25T06:57:34.237Z,964.82
2019-04-25T06:58:34.302Z,964.85
2019-04-25T06:59:34.539Z,964.82
2019-04-25T07:00:40.800Z,964.82
2019-04-25T07:01:34.686Z,964.78
2019-04-25T07:02:35.178Z,964.77
2019-04-25T07:03:35.615Z,964.82
2019-04-25T07:04:34.855Z,964.74
2019-04-25T07:05:40.157Z,964.73
2019-04-25T07:06:34.718Z,964.71
2019-04-25T07:07:35.135Z,964.74
2019-04-25T07:08:35.325Z,964.72
2019-04-25T07:09:34.950Z,964.72
2019-04-25T07:10:34.880Z,964.75
2019-04-25T07:11:34.855Z,964.85
2019-04-25T07:12:34.847Z,964.91
2019-04-25T07:13:37.241Z,964.96
2019-04-25T07:14:36.806Z,964.93
2019-04-25T07:15:35.181Z,964.94
2019-04-25T07:16:34.693Z,964.91
2019-04-25T07:17:34.972Z,964.91
2019-04-25T07:18:36.337Z,964.95
2019-04-25T07:19:34.376Z,964.93
2019-04-25T07:20:34.579Z,964.88
2019-04-25T07:21:34.671Z,964.87
2019-04-25T07:22:35.032Z,964.83
2019-04-25T07:23:34.630Z,964.85
2019-04-25T07:24:35.241Z,964.85
2019-04-25T07:25:35.328Z,964.82
2019-04-25T07:26:37.096Z,964.82
2019-04-25T07:27:48.512Z,964.81
2019-04-25T07:29:36.720Z,964.83
2019-04-25T07:30:48.617Z,964.83
2019-04-25T07:32:37.082Z,964.78
2019-04-25T07:33:37.021Z,964.82
2019-04-25T07:35:40.010Z,964.78
2019-04-25T07:36:39.913Z,964.76
2019-04-25T07:38:35.023Z,964.79
2019-04-25T07:39:35.291Z,964.80
2019-04-25T07:40:34.966Z,964.83
2019-04-25T07:41:36.820Z,964.86
2019-04-25T07:42:35.194Z,964.88
2019-04-25T07:43:35.421Z,964.94
2019-04-25T07:44:48.911Z,964.94
2019-04-25T07:45:35.062Z,964.92
2019-04-25T07:46:38.197Z,964.89
2019-04-25T07:47:35.059Z,964.87
2019-04-25T07:48:36.748Z,964.81
2019-04-25T07:49:34.827Z,964.74
2019-04-25T07:50:35.358Z,964.83
2019-04-25T07:51:35.252Z,964.91
2019-04-25T07:52:34.840Z,964.91
2019-04-25T07:53:35.142Z,964.86
2019-04-25T07:54:35.402Z,964.87
2019-04-25T07:55:36.323Z,964.83
2019-04-25T07:56:35.193Z,964.84
2019-04-25T07:57:34.940Z,964.85
2019-04-25T07:58:45.354Z,964.84
2019-04-25T07:59:35.352Z,964.82
2019-04-25T08:00:35.251Z,964.78
2019-04-25T08:01:36.626Z,964.81
2019-04-25T08:02:35.006Z,964.80
2019-04-25T08:03:34.442Z,964.76
2019-04-25T08:04:35.735Z,964.78
2019-04-25T08:05:35.366Z,964.77
2019-04-25T08:06:34.565Z,964.80
2019-04-25T08:07:35.289Z,964.80
2019-04-25T08:08:34.939Z,964.76
2019-04-25T08:09:35.221Z,964.81
2019-04-25T08:10:34.684Z,964.80
2019-04-25T08:11:35.051Z,964.79
2019-04-25T08:12:34.683Z,964.79
2019-04-25T08:13:34.877Z,964.80
2019-04-25T08:14:34.918Z,964.80
2019-04-25T08:15:34.965Z,964.77
2019-04-25T08:16:34.805Z,964.75
2019-04-25T08:17:35.819Z,964.75
2019-04-25T08:18:35.089Z,964.78
2019-04-25T08:19:34.688Z,964.77
2019-04-25T08:20:34.713Z,964.76
2019-04-25T08:21:34.493Z,964.79
2019-04-25T08:22:42.915Z,964.79
2019-04-25T08:23:36.699Z,964.77
2019-04-25T08:24:34.877Z,964.79
2019-04-25T08:25:36.625Z,964.81
2019-04-25T08:26:35.002Z,964.80
2019-04-25T08:27:34.762Z,964.81
2019-04-25T08:28:34.549Z,964.76
2019-04-25T08:29:36.370Z,964.76
2019-04-25T08:30:35.321Z,964.80
2019-04-25T08:31:34.894Z,964.80
2019-04-25T08:32:35.532Z,964.81
2019-04-25T08:33:34.535Z,964.80
2019-04-25T08:34:34.804Z,964.81
2019-04-25T08:35:34.271Z,964.91
2019-04-25T08:36:36.679Z,964.91
2019-04-25T08:37:34.473Z,964.88
2019-04-25T08:38:34.755Z,964.89
2019-04-25T08:39:36.951Z,964.90
2019-04-25T08:40:35.757Z,964.94
2019-04-25T08:41:34.816Z,964.90
2019-04-25T08:42:35.430Z,964.89
2019-04-25T08:43:36.333Z,964.84
2019-04-25T08:44:34.785Z,964.85
2019-04-25T08:45:35.391Z,964.96
2019-04-25T08:46:35.850Z,964.94
2019-04-25T08:47:35.781Z,964.88
2019-04-25T08:48:34.525Z,964.91
2019-04-25T08:49:34.906Z,964.86
2019-04-25T08:50:37.199Z,964.91
2019-04-25T08:51:34.880Z,964.94
2019-04-25T08:52:35.148Z,964.96
2019-04-25T08:53:35.158Z,964.98
2019-04-25T08:54:35.393Z,964.98
2019-04-25T08:55:34.910Z,964.93
2019-04-25T08:56:35.105Z,964.99
2019-04-25T08:57:34.764Z,965.14
2019-04-25T08:58:35.294Z,965.13
2019-04-25T08:59:40.113Z,965.29
2019-04-25T09:00:35.704Z,965.43
2019-04-25T09:01:36.515Z,965.42
2019-04-25T09:02:35.884Z,965.31
2019-04-25T09:03:35.264Z,965.32
2019-04-25T09:04:35.662Z,965.35
2019-04-25T09:05:35.823Z,965.44
2019-04-25T09:06:36.063Z,965.41
2019-04-25T09:07:35.421Z,965.47
2019-04-25T09:08:36.006Z,965.54
2019-04-25T09:09:35.375Z,965.51
2019-04-25T09:10:36.842Z,965.55
2019-04-25T09:11:34.854Z,965.59
2019-04-25T09:12:35.586Z,965.66
2019-04-25T09:13:35.859Z,965.74
2019-04-25T09:14:35.215Z,965.64
2019-04-25T09:15:35.648Z,965.72
2019-04-25T09:16:35.366Z,965.81
2019-04-25T09:17:35.858Z,965.90
2019-04-25T09:18:35.707Z,965.96
2019-04-25T09:19:35.877Z,966.16
2019-04-25T09:20:38.043Z,966.18
2019-04-25T09:21:35.275Z,966.10
2019-04-25T09:22:35.280Z,966.07
2019-04-25T09:23:34.607Z,966.17
2019-04-25T09:24:36.284Z,966.30
2019-04-25T09:25:34.605Z,966.34
2019-04-25T09:26:34.901Z,966.52
2019-04-25T09:27:34.372Z,966.53
2019-04-25T09:28:34.735Z,966.42
2019-04-25T09:29:34.371Z,966.42
2019-04-25T09:30:34.950Z,966.55
2019-04-25T09:31:34.582Z,966.59
2019-04-25T09:32:33.842Z,966.54
2019-04-25T09:33:35.122Z,966.46
2019-04-25T09:34:33.614Z,966.32
2019-04-25T09:35:33.618Z,966.20
2019-04-25T09:36:33.623Z,966.02
2019-04-25T09:37:33.621Z,966.09
2019-04-25T09:38:34.770Z,966.14
2019-04-25T09:39:33.807Z,966.00
2019-04-25T09:40:34.170Z,965.90
2019-04-25T09:41:33.611Z,965.74
2019-04-25T09:42:33.827Z,965.55
2019-04-25T09:43:33.537Z,965.45
2019-04-25T09:44:33.103Z,965.28
2019-04-25T09:45:33.558Z,965.16
2019-04-25T09:46:34.157Z,965.12
2019-04-25T09:47:33.509Z,965.05
2019-04-25T09:48:35.361Z,964.98
2019-04-25T09:49:34.992Z,964.95
2019-04-25T09:50:34.004Z,965.01
2019-04-25T09:51:33.596Z,965.00
2019-04-25T09:52:34.029Z,965.04
2019-04-25T09:53:34.839Z,965.07
2019-04-25T09:54:33.461Z,965.08
2019-04-25T09:55:34.055Z,965.02
2019-04-25T09:56:33.964Z,964.97
2019-04-25T09:57:33.567Z,964.99
2019-04-25T09:58:33.829Z,965.04
2019-04-25T09:59:33.223Z,965.14
2019-04-25T10:00:33.398Z,965.06
2019-04-25T10:01:33.898Z,964.96
2019-04-25T10:02:32.956Z,964.94
2019-04-25T10:03:33.366Z,964.94
2019-04-25T10:04:34.555Z,964.91
2019-04-25T10:05:33.945Z,964.74
2019-04-25T10:06:33.350Z,964.51
2019-04-25T10:07:32.942Z,964.31
2019-04-25T10:08:34.297Z,964.19
2019-04-25T10:09:33.750Z,964.08
2019-04-25T10:10:32.896Z,964.09
2019-04-25T10:11:33.513Z,963.98
2019-04-25T10:12:34.184Z,963.95
2019-04-25T10:13:33.736Z,963.95
2019-04-25T10:14:32.874Z,963.95
2019-04-25T10:15:33.916Z,964.02
2019-04-25T10:16:33.498Z,964.07
2019-04-25T10:17:33.775Z,964.11
2019-04-25T10:18:33.481Z,964.15
2019-04-25T10:19:34.345Z,964.15
2019-04-25T10:20:33.368Z,964.18
2019-04-25T10:21:34.262Z,964.17
2019-04-25T10:22:33.914Z,964.14
2019-04-25T10:23:34.236Z,964.14
2019-04-25T10:24:32.790Z,964.09
2019-04-25T10:25:33.438Z,964.11
2019-04-25T10:26:34.781Z,964.14
2019-04-25T10:27:32.776Z,964.11
2019-04-25T10:28:33.574Z,964.13
2019-04-25T10:29:41.661Z,964.07
2019-04-25T10:30:34.209Z,964.10
2019-04-25T10:31:33.899Z,964.07
2019-04-25T10:32:33.536Z,964.06
2019-04-25T10:33:32.721Z,964.06
2019-04-25T10:34:33.336Z,964.07
2019-04-25T10:35:40.864Z,964.03
2019-04-25T10:36:33.612Z,964.08
2019-04-25T10:37:33.650Z,964.06
2019-04-25T10:38:33.615Z,964.03
2019-04-25T10:39:34.031Z,963.99
2019-04-25T10:40:33.813Z,964.01
2019-04-25T10:41:33.704Z,963.98
2019-04-25T10:42:34.235Z,963.99
2019-04-25T10:43:34.175Z,963.94
2019-04-25T10:44:33.889Z,963.95
2019-04-25T10:45:34.049Z,963.93
2019-04-25T10:46:33.981Z,963.90
2019-04-25T10:47:33.455Z,963.90
2019-04-25T10:48:34.258Z,963.87
2019-04-25T10:49:34.366Z,963.83
2019-04-25T10:50:34.098Z,963.85
2019-04-25T10:51:34.163Z,963.84
2019-04-25T10:52:33.786Z,963.86
2019-04-25T10:53:33.852Z,963.88
2019-04-25T10:54:33.776Z,963.85
2019-04-25T10:55:32.577Z,963.82
2019-04-25T10:56:33.517Z,963.86
2019-04-25T10:57:33.989Z,963.85
2019-04-25T10:58:33.495Z,963.83
2019-04-25T10:59:32.555Z,963.76
2019-04-25T11:00:33.882Z,963.79
2019-04-25T11:01:33.904Z,963.75
2019-04-25T11:02:33.909Z,963.76
2019-04-25T11:03:33.690Z,963.77
2019-04-25T11:04:32.516Z,963.73
2019-04-25T11:05:34.193Z,963.70
2019-04-25T11:06:33.634Z,963.72
2019-04-25T11:07:33.921Z,963.67
2019-04-25T11:08:34.014Z,963.69
2019-04-25T11:09:34.053Z,963.72
2019-04-25T11:10:34.298Z,963.67
2019-04-25T11:11:34.073Z,963.67
2019-04-25T11:12:33.816Z,963.64
2019-04-25T11:13:33.902Z,963.66
2019-04-25T11:14:34.014Z,963.64
2019-04-25T11:15:33.906Z,963.61
2019-04-25T11:16:33.302Z,963.59
2019-04-25T11:17:33.902Z,963.58
2019-04-25T11:18:33.928Z,963.52
2019-04-25T11:19:33.858Z,963.50
2019-04-25T11:20:33.842Z,963.52
2019-04-25T11:21:33.323Z,963.51
2019-04-25T11:22:34.117Z,963.50
2019-04-25T11:23:32.408Z,963.50
2019-04-25T11:24:32.383Z,963.50
2019-04-25T11:25:34.060Z,963.38
2019-04-25T11:26:34.526Z,963.49
2019-04-25T11:27:33.973Z,963.38
2019-04-25T11:28:33.790Z,963.33
2019-04-25T11:29:33.972Z,963.27
2019-04-25T11:30:32.368Z,963.24
2019-04-25T11:31:33.737Z,963.27
2019-04-25T11:32:33.940Z,963.28
2019-04-25T11:33:33.490Z,963.25
2019-04-25T11:34:32.322Z,963.25
2019-04-25T11:35:42.048Z,963.15
2019-04-25T11:37:26.729Z,963.15
2019-04-25T11:38:26.698Z,963.16
2019-04-25T11:39:26.692Z,963.17
2019-04-25T11:40:26.689Z,963.10
2019-04-25T11:41:26.683Z,963.11
2019-04-25T11:42:26.676Z,963.04
2019-04-25T11:43:26.663Z,963.05
2019-04-25T11:44:26.658Z,963.06
2019-04-25T11:45:26.654Z,963.02
2019-04-25T11:46:26.643Z,963.05
2019-04-25T11:47:26.641Z,963.01
2019-04-25T11:48:26.637Z,963.01
2019-04-25T11:49:26.625Z,963.04
2019-04-25T11:50:26.624Z,962.95
2019-04-25T11:51:26.618Z,962.99
2019-04-25T11:52:28.178Z,963.05
2019-04-25T11:53:26.606Z,962.96
2019-04-25T11:54:26.595Z,963.01
2019-04-25T11:55:26.591Z,962.98
2019-04-25T11:56:26.591Z,962.92
2019-04-25T11:57:26.585Z,962.89
2019-04-25T11:58:26.576Z,962.94
2019-04-25T11:59:26.571Z,962.89
2019-04-25T12:00:26.561Z,962.87
2019-04-25T12:01:26.556Z,962.84
2019-04-25T12:02:26.545Z,962.87
2019-04-25T12:03:26.564Z,962.92
2019-04-25T12:04:26.533Z,962.86
2019-04-25T12:05:26.549Z,962.80
2019-04-25T12:06:26.525Z,962.80
2019-04-25T12:07:26.512Z,962.82
2019-04-25T12:08:26.511Z,962.76
2019-04-25T12:09:26.519Z,962.77
2019-04-25T12:10:26.515Z,962.80
2019-04-25T12:11:26.494Z,962.85
2019-04-25T12:12:26.494Z,962.84
2019-04-25T12:13:26.482Z,962.84
2019-04-25T12:14:26.475Z,962.73
2019-04-25T12:15:26.479Z,962.82
2019-04-25T12:16:26.464Z,962.75
2019-04-25T12:17:26.460Z,962.72
2019-04-25T12:18:26.450Z,962.66
2019-04-25T12:19:34.490Z,962.73
2019-04-25T12:20:26.446Z,962.68
2019-04-25T12:21:26.445Z,962.61
2019-04-25T12:22:26.426Z,962.58
2019-04-25T12:23:26.421Z,962.52
2019-04-25T12:24:26.414Z,962.56
2019-04-25T12:25:26.409Z,962.51
2019-04-25T12:26:26.440Z,962.54
2019-04-25T12:27:26.391Z,962.52
2019-04-25T12:28:26.391Z,962.52
2019-04-25T12:29:26.393Z,962.49
2019-04-25T12:30:37.340Z,962.49
2019-04-25T12:31:26.373Z,962.41
2019-04-25T12:32:26.361Z,962.49
2019-04-25T12:33:26.364Z,962.47
2019-04-25T12:34:26.344Z,962.45
2019-04-25T12:35:26.341Z,962.40
2019-04-25T12:36:26.340Z,962.38
2019-04-25T12:37:26.329Z,962.40
2019-04-25T12:38:26.324Z,962.35
2019-04-25T12:39:26.323Z,962.32
2019-04-25T12:40:26.307Z,962.31
2019-04-25T12:41:26.306Z,962.38
2019-04-25T12:42:26.297Z,962.37
2019-04-25T12:43:26.293Z,962.33
2019-04-25T12:44:26.282Z,962.28
2019-04-25T12:45:26.279Z,962.28
2019-04-25T12:46:26.276Z,962.26
2019-04-25T12:47:26.270Z,962.26
2019-04-25T12:48:26.255Z,962.23
2019-04-25T12:49:26.254Z,962.34
2019-04-25T12:50:26.248Z,962.32
2019-04-25T12:51:26.243Z,962.28
2019-04-25T12:52:26.242Z,962.19
2019-04-25T12:53:26.227Z,962.27
2019-04-25T12:54:26.219Z,962.20
2019-04-25T12:55:26.220Z,962.20